sensor_id;sensor_type;location;lat;lon;timestamp;temperature;humidity
58469;DHT22;44257;44.804;10.220;2022-11-20T00:00:48;7.80;99.90
58469;DHT22;44257;44.804;10.220;2022-11-20T00:03:14;7.90;99.90
58469;DHT22;44257;44.804;10.220;2022-11-20T00:05:40;7.80;99.90
58469;DHT22;44257;44.804;10.220;2022-11-20T00:08:05;7.80;99.90
58469;DHT22;44257;44.804;10.220;2022-11-20T00:10:31;7.80;99.90
58469;DHT22;44257;44.804;10.220;2022-11-20T00:12:58;7.80;99.90
58469;DHT22;44257;44.804;10.220;2022-11-20T00:15:24;7.80;99.90
58469;DHT22;44257;44.804;10.220;2022-11-20T00:17:50;7.70;99.90
58469;DHT22;44257;44.804;10.220;2022-11-20T00:20:16;7.70;99.90
58469;DHT22;44257;44.804;10.220;2022-11-20T00:22:42;7.70;99.90
58469;DHT22;44257;44.804;10.220;2022-11-20T00:25:08;7.70;99.90
58469;DHT22;44257;44.804;10.220;2022-11-20T00:27:34;7.70;99.90
58469;DHT22;44257;44.804;10.220;2022-11-20T00:30:00;7.70;99.90
58469;DHT22;44257;44.804;10.220;2022-11-20T00:32:26;7.70;99.90
58469;DHT22;44257;44.804;10.220;2022-11-20T00:34:51;7.70;99.90
58469;DHT22;44257;44.804;10.220;2022-11-20T00:37:17;7.70;99.90
58469;DHT22;44257;44.804;10.220;2022-11-20T00:39:43;7.70;99.90
58469;DHT22;44257;44.804;10.220;2022-11-20T00:42:09;7.70;99.90
58469;DHT22;44257;44.804;10.220;2022-11-20T00:44:35;7.70;99.90
58469;DHT22;44257;44.804;10.220;2022-11-20T00:47:00;7.70;99.90
58469;DHT22;44257;44.804;10.220;2022-11-20T00:49:26;7.70;99.90
58469;DHT22;44257;44.804;10.220;2022-11-20T00:51:52;7.70;99.90
58469;DHT22;44257;44.804;10.220;2022-11-20T00:54:18;7.70;99.90
58469;DHT22;44257;44.804;10.220;2022-11-20T00:56:44;7.70;99.90
58469;DHT22;44257;44.804;10.220;2022-11-20T00:59:09;7.80;99.90
58469;DHT22;44257;44.804;10.220;2022-11-20T01:01:36;7.80;99.90
58469;DHT22;44257;44.804;10.220;2022-11-20T01:04:02;7.70;99.90
58469;DHT22;44257;44.804;10.220;2022-11-20T01:06:31;7.70;99.90
58469;DHT22;44257;44.804;10.220;2022-11-20T01:08:59;7.60;99.90
58469;DHT22;44257;44.804;10.220;2022-11-20T01:11:28;7.60;99.90
58469;DHT22;44257;44.804;10.220;2022-11-20T01:13:55;7.70;99.90
58469;DHT22;44257;44.804;10.220;2022-11-20T01:16:23;7.70;99.90
58469;DHT22;44257;44.804;10.220;2022-11-20T01:18:52;7.70;99.90
58469;DHT22;44257;44.804;10.220;2022-11-20T01:21:20;7.70;99.90
58469;DHT22;44257;44.804;10.220;2022-11-20T01:23:48;7.70;99.90
58469;DHT22;44257;44.804;10.220;2022-11-20T01:26:16;7.60;99.90
58469;DHT22;44257;44.804;10.220;2022-11-20T01:28:43;7.60;99.90
58469;DHT22;44257;44.804;10.220;2022-11-20T01:31:22;7.50;99.90
58469;DHT22;44257;44.804;10.220;2022-11-20T01:33:50;7.50;99.90
58469;DHT22;44257;44.804;10.220;2022-11-20T01:36:18;7.50;99.90
58469;DHT22;44257;44.804;10.220;2022-11-20T01:38:45;7.50;99.90
58469;DHT22;44257;44.804;10.220;2022-11-20T01:41:13;7.50;99.90
58469;DHT22;44257;44.804;10.220;2022-11-20T01:43:59;7.50;99.90
58469;DHT22;44257;44.804;10.220;2022-11-20T01:46:25;7.50;99.90
58469;DHT22;44257;44.804;10.220;2022-11-20T01:48:57;7.50;99.90
58469;DHT22;44257;44.804;10.220;2022-11-20T01:51:32;7.50;99.90
58469;DHT22;44257;44.804;10.220;2022-11-20T01:54:02;7.50;99.90
58469;DHT22;44257;44.804;10.220;2022-11-20T01:56:31;7.40;99.90
58469;DHT22;44257;44.804;10.220;2022-11-20T01:59:01;7.40;99.90
58469;DHT22;44257;44.804;10.220;2022-11-20T02:01:29;7.40;99.90
58469;DHT22;44257;44.804;10.220;2022-11-20T02:03:56;7.30;99.90
58469;DHT22;44257;44.804;10.220;2022-11-20T02:06:26;7.40;99.90
58469;DHT22;44257;44.804;10.220;2022-11-20T02:08:53;7.40;99.90
58469;DHT22;44257;44.804;10.220;2022-11-20T02:11:19;7.40;99.90
58469;DHT22;44257;44.804;10.220;2022-11-20T02:13:45;7.50;99.90
58469;DHT22;44257;44.804;10.220;2022-11-20T02:16:26;7.40;99.90
58469;DHT22;44257;44.804;10.220;2022-11-20T02:18:54;7.40;99.90
58469;DHT22;44257;44.804;10.220;2022-11-20T02:26:54;7.30;99.90
58469;DHT22;44257;44.804;10.220;2022-11-20T02:29:47;7.30;99.90
58469;DHT22;44257;44.804;10.220;2022-11-20T02:32:20;7.20;99.90
58469;DHT22;44257;44.804;10.220;2022-11-20T02:34:47;7.20;99.90
58469;DHT22;44257;44.804;10.220;2022-11-20T02:37:13;7.20;99.90
58469;DHT22;44257;44.804;10.220;2022-11-20T02:39:40;7.20;99.90
58469;DHT22;44257;44.804;10.220;2022-11-20T02:42:07;7.10;99.90
58469;DHT22;44257;44.804;10.220;2022-11-20T02:44:33;7.10;99.90
58469;DHT22;44257;44.804;10.220;2022-11-20T02:46:58;7.10;99.90
58469;DHT22;44257;44.804;10.220;2022-11-20T02:49:25;7.10;99.90
58469;DHT22;44257;44.804;10.220;2022-11-20T02:51:51;7.00;99.90
58469;DHT22;44257;44.804;10.220;2022-11-20T02:54:17;7.00;99.90
58469;DHT22;44257;44.804;10.220;2022-11-20T02:56:43;7.00;99.90
58469;DHT22;44257;44.804;10.220;2022-11-20T02:59:09;6.90;99.90
58469;DHT22;44257;44.804;10.220;2022-11-20T03:01:35;6.80;99.90
58469;DHT22;44257;44.804;10.220;2022-11-20T03:04:02;6.70;99.90
58469;DHT22;44257;44.804;10.220;2022-11-20T03:06:28;6.60;99.90
58469;DHT22;44257;44.804;10.220;2022-11-20T03:08:54;6.60;99.90
58469;DHT22;44257;44.804;10.220;2022-11-20T03:11:20;6.50;99.90
58469;DHT22;44257;44.804;10.220;2022-11-20T03:13:47;6.50;99.90
58469;DHT22;44257;44.804;10.220;2022-11-20T03:16:19;6.50;99.90
58469;DHT22;44257;44.804;10.220;2022-11-20T03:18:45;6.70;99.90
58469;DHT22;44257;44.804;10.220;2022-11-20T03:21:12;6.70;99.90
58469;DHT22;44257;44.804;10.220;2022-11-20T03:23:39;6.70;99.90
58469;DHT22;44257;44.804;10.220;2022-11-20T03:26:14;6.70;99.90
58469;DHT22;44257;44.804;10.220;2022-11-20T03:28:42;6.70;99.90
58469;DHT22;44257;44.804;10.220;2022-11-20T03:31:13;6.70;99.90
58469;DHT22;44257;44.804;10.220;2022-11-20T03:33:40;6.70;99.90
58469;DHT22;44257;44.804;10.220;2022-11-20T03:36:09;6.60;99.90
58469;DHT22;44257;44.804;10.220;2022-11-20T03:38:35;6.60;99.90
58469;DHT22;44257;44.804;10.220;2022-11-20T03:41:04;6.60;99.90
58469;DHT22;44257;44.804;10.220;2022-11-20T03:43:30;6.60;99.90
58469;DHT22;44257;44.804;10.220;2022-11-20T03:45:56;6.60;99.90
58469;DHT22;44257;44.804;10.220;2022-11-20T03:48:22;6.50;99.90
58469;DHT22;44257;44.804;10.220;2022-11-20T03:50:48;6.50;99.90
58469;DHT22;44257;44.804;10.220;2022-11-20T03:53:15;6.50;99.90
58469;DHT22;44257;44.804;10.220;2022-11-20T03:55:41;6.50;99.90
58469;DHT22;44257;44.804;10.220;2022-11-20T03:58:08;6.50;99.90
58469;DHT22;44257;44.804;10.220;2022-11-20T04:00:34;6.50;99.90
58469;DHT22;44257;44.804;10.220;2022-11-20T04:03:01;6.60;99.90
58469;DHT22;44257;44.804;10.220;2022-11-20T04:05:26;6.60;99.90
58469;DHT22;44257;44.804;10.220;2022-11-20T04:07:53;6.70;99.90
58469;DHT22;44257;44.804;10.220;2022-11-20T04:10:19;6.70;99.90
58469;DHT22;44257;44.804;10.220;2022-11-20T04:12:45;6.60;99.90
58469;DHT22;44257;44.804;10.220;2022-11-20T04:15:11;6.60;99.90
58469;DHT22;44257;44.804;10.220;2022-11-20T04:17:37;6.50;99.90
58469;DHT22;44257;44.804;10.220;2022-11-20T04:20:03;6.50;99.90
58469;DHT22;44257;44.804;10.220;2022-11-20T04:22:29;6.40;99.90
58469;DHT22;44257;44.804;10.220;2022-11-20T04:24:55;6.40;99.90
58469;DHT22;44257;44.804;10.220;2022-11-20T04:27:21;6.30;99.90
58469;DHT22;44257;44.804;10.220;2022-11-20T04:29:47;6.30;99.90
58469;DHT22;44257;44.804;10.220;2022-11-20T04:32:12;6.30;99.90
58469;DHT22;44257;44.804;10.220;2022-11-20T04:34:38;6.20;99.90
58469;DHT22;44257;44.804;10.220;2022-11-20T04:37:04;6.20;99.90
58469;DHT22;44257;44.804;10.220;2022-11-20T04:39:30;6.10;99.90
58469;DHT22;44257;44.804;10.220;2022-11-20T04:41:56;6.10;99.90
58469;DHT22;44257;44.804;10.220;2022-11-20T04:44:41;6.00;99.90
58469;DHT22;44257;44.804;10.220;2022-11-20T04:47:07;6.00;99.90
58469;DHT22;44257;44.804;10.220;2022-11-20T04:49:33;6.00;99.90
58469;DHT22;44257;44.804;10.220;2022-11-20T04:51:59;5.90;99.90
58469;DHT22;44257;44.804;10.220;2022-11-20T04:54:25;5.90;99.90
58469;DHT22;44257;44.804;10.220;2022-11-20T04:56:51;5.90;99.90
58469;DHT22;44257;44.804;10.220;2022-11-20T04:59:16;5.90;99.90
58469;DHT22;44257;44.804;10.220;2022-11-20T05:01:42;5.90;99.90
58469;DHT22;44257;44.804;10.220;2022-11-20T05:04:08;5.90;99.90
58469;DHT22;44257;44.804;10.220;2022-11-20T05:06:34;5.90;99.90
58469;DHT22;44257;44.804;10.220;2022-11-20T05:09:00;5.80;99.90
58469;DHT22;44257;44.804;10.220;2022-11-20T05:11:26;5.80;99.90
58469;DHT22;44257;44.804;10.220;2022-11-20T05:13:54;5.80;99.90
58469;DHT22;44257;44.804;10.220;2022-11-20T05:16:22;5.80;99.90
58469;DHT22;44257;44.804;10.220;2022-11-20T05:18:49;5.70;99.90
58469;DHT22;44257;44.804;10.220;2022-11-20T05:21:16;5.70;99.90
58469;DHT22;44257;44.804;10.220;2022-11-20T05:23:43;5.70;99.90
58469;DHT22;44257;44.804;10.220;2022-11-20T05:26:21;5.70;99.90
58469;DHT22;44257;44.804;10.220;2022-11-20T05:28:48;5.70;99.90
58469;DHT22;44257;44.804;10.220;2022-11-20T05:31:18;5.70;99.90
58469;DHT22;44257;44.804;10.220;2022-11-20T05:33:44;5.60;99.90
58469;DHT22;44257;44.804;10.220;2022-11-20T05:36:12;5.60;99.90
58469;DHT22;44257;44.804;10.220;2022-11-20T05:38:38;5.60;99.90
58469;DHT22;44257;44.804;10.220;2022-11-20T05:41:13;5.60;99.90
58469;DHT22;44257;44.804;10.220;2022-11-20T05:43:42;5.60;99.90
58469;DHT22;44257;44.804;10.220;2022-11-20T05:46:09;5.60;99.90
58469;DHT22;44257;44.804;10.220;2022-11-20T05:48:36;5.60;99.90
58469;DHT22;44257;44.804;10.220;2022-11-20T05:51:04;5.60;99.90
58469;DHT22;44257;44.804;10.220;2022-11-20T05:53:32;5.70;99.90
58469;DHT22;44257;44.804;10.220;2022-11-20T05:56:00;5.80;99.90
58469;DHT22;44257;44.804;10.220;2022-11-20T05:58:27;5.80;99.90
58469;DHT22;44257;44.804;10.220;2022-11-20T06:00:53;5.80;99.90
58469;DHT22;44257;44.804;10.220;2022-11-20T06:03:19;5.70;99.90
58469;DHT22;44257;44.804;10.220;2022-11-20T06:05:45;5.70;99.90
58469;DHT22;44257;44.804;10.220;2022-11-20T06:08:12;5.60;99.90
58469;DHT22;44257;44.804;10.220;2022-11-20T06:10:38;5.50;99.90
58469;DHT22;44257;44.804;10.220;2022-11-20T06:13:04;5.40;99.90
58469;DHT22;44257;44.804;10.220;2022-11-20T06:15:30;5.40;99.90
58469;DHT22;44257;44.804;10.220;2022-11-20T06:17:56;5.30;99.90
58469;DHT22;44257;44.804;10.220;2022-11-20T06:20:22;5.20;99.90
58469;DHT22;44257;44.804;10.220;2022-11-20T06:22:48;5.20;99.90
58469;DHT22;44257;44.804;10.220;2022-11-20T06:25:14;5.10;99.90
58469;DHT22;44257;44.804;10.220;2022-11-20T06:27:40;5.10;99.90
58469;DHT22;44257;44.804;10.220;2022-11-20T06:30:06;5.10;99.90
58469;DHT22;44257;44.804;10.220;2022-11-20T06:32:33;5.10;99.90
58469;DHT22;44257;44.804;10.220;2022-11-20T06:34:58;5.10;99.90
58469;DHT22;44257;44.804;10.220;2022-11-20T06:37:24;5.10;99.90
58469;DHT22;44257;44.804;10.220;2022-11-20T06:39:50;5.10;99.90
58469;DHT22;44257;44.804;10.220;2022-11-20T06:42:16;5.10;99.90
58469;DHT22;44257;44.804;10.220;2022-11-20T06:44:41;5.10;99.90
58469;DHT22;44257;44.804;10.220;2022-11-20T06:47:07;5.10;99.90
58469;DHT22;44257;44.804;10.220;2022-11-20T06:49:33;5.20;99.90
58469;DHT22;44257;44.804;10.220;2022-11-20T06:51:59;5.20;99.90
58469;DHT22;44257;44.804;10.220;2022-11-20T06:54:25;5.20;99.90
58469;DHT22;44257;44.804;10.220;2022-11-20T06:56:51;5.30;99.90
58469;DHT22;44257;44.804;10.220;2022-11-20T06:59:17;5.30;99.90
58469;DHT22;44257;44.804;10.220;2022-11-20T07:01:43;5.30;99.90
58469;DHT22;44257;44.804;10.220;2022-11-20T07:04:08;5.30;99.90
58469;DHT22;44257;44.804;10.220;2022-11-20T07:06:34;5.30;99.90
58469;DHT22;44257;44.804;10.220;2022-11-20T07:09:00;5.30;99.90
58469;DHT22;44257;44.804;10.220;2022-11-20T07:11:27;5.40;99.90
58469;DHT22;44257;44.804;10.220;2022-11-20T07:13:52;5.40;99.90
58469;DHT22;44257;44.804;10.220;2022-11-20T07:16:19;5.50;99.90
58469;DHT22;44257;44.804;10.220;2022-11-20T07:18:45;5.50;99.90
58469;DHT22;44257;44.804;10.220;2022-11-20T07:21:11;5.60;99.90
58469;DHT22;44257;44.804;10.220;2022-11-20T07:23:37;5.70;99.90
58469;DHT22;44257;44.804;10.220;2022-11-20T07:26:07;5.80;99.90
58469;DHT22;44257;44.804;10.220;2022-11-20T07:28:33;6.00;99.90
58469;DHT22;44257;44.804;10.220;2022-11-20T07:30:59;6.10;99.90
58469;DHT22;44257;44.804;10.220;2022-11-20T07:33:25;6.20;99.90
58469;DHT22;44257;44.804;10.220;2022-11-20T07:35:51;6.30;99.90
58469;DHT22;44257;44.804;10.220;2022-11-20T07:38:17;6.40;99.90
58469;DHT22;44257;44.804;10.220;2022-11-20T07:40:43;6.50;99.90
58469;DHT22;44257;44.804;10.220;2022-11-20T07:43:09;6.60;99.90
58469;DHT22;44257;44.804;10.220;2022-11-20T07:45:35;6.70;99.90
58469;DHT22;44257;44.804;10.220;2022-11-20T07:48:01;6.90;99.90
58469;DHT22;44257;44.804;10.220;2022-11-20T07:50:27;6.90;99.90
58469;DHT22;44257;44.804;10.220;2022-11-20T07:53:00;6.80;99.90
58469;DHT22;44257;44.804;10.220;2022-11-20T07:55:26;6.80;99.90
58469;DHT22;44257;44.804;10.220;2022-11-20T07:57:55;6.80;99.90
58469;DHT22;44257;44.804;10.220;2022-11-20T08:00:23;6.80;99.90
58469;DHT22;44257;44.804;10.220;2022-11-20T08:02:48;6.80;99.90
58469;DHT22;44257;44.804;10.220;2022-11-20T08:05:14;6.70;99.90
58469;DHT22;44257;44.804;10.220;2022-11-20T08:07:42;6.70;99.90
58469;DHT22;44257;44.804;10.220;2022-11-20T08:10:10;6.80;99.90
58469;DHT22;44257;44.804;10.220;2022-11-20T08:12:36;6.80;99.90
58469;DHT22;44257;44.804;10.220;2022-11-20T08:15:21;6.80;99.90
58469;DHT22;44257;44.804;10.220;2022-11-20T08:17:47;6.80;99.90
58469;DHT22;44257;44.804;10.220;2022-11-20T08:20:13;6.80;99.90
58469;DHT22;44257;44.804;10.220;2022-11-20T08:22:38;6.90;99.90
58469;DHT22;44257;44.804;10.220;2022-11-20T08:25:05;6.90;99.90
58469;DHT22;44257;44.804;10.220;2022-11-20T08:27:31;7.00;99.90
58469;DHT22;44257;44.804;10.220;2022-11-20T08:29:58;7.00;99.90
58469;DHT22;44257;44.804;10.220;2022-11-20T08:32:24;7.00;99.90
58469;DHT22;44257;44.804;10.220;2022-11-20T08:34:50;7.00;99.90
58469;DHT22;44257;44.804;10.220;2022-11-20T08:37:15;7.10;99.90
58469;DHT22;44257;44.804;10.220;2022-11-20T08:39:41;7.20;99.90
58469;DHT22;44257;44.804;10.220;2022-11-20T08:42:07;7.30;99.90
58469;DHT22;44257;44.804;10.220;2022-11-20T08:44:33;7.40;99.90
58469;DHT22;44257;44.804;10.220;2022-11-20T08:47:00;7.50;99.90
58469;DHT22;44257;44.804;10.220;2022-11-20T08:49:26;7.60;99.90
58469;DHT22;44257;44.804;10.220;2022-11-20T08:51:51;7.60;99.90
58469;DHT22;44257;44.804;10.220;2022-11-20T08:54:19;7.60;99.90
58469;DHT22;44257;44.804;10.220;2022-11-20T08:56:47;7.60;99.90
58469;DHT22;44257;44.804;10.220;2022-11-20T08:59:13;7.70;99.90
58469;DHT22;44257;44.804;10.220;2022-11-20T09:01:39;7.70;99.90
58469;DHT22;44257;44.804;10.220;2022-11-20T09:04:05;7.70;99.90
58469;DHT22;44257;44.804;10.220;2022-11-20T09:06:31;7.70;99.90
58469;DHT22;44257;44.804;10.220;2022-11-20T09:08:57;7.80;99.90
58469;DHT22;44257;44.804;10.220;2022-11-20T09:11:22;8.00;99.90
58469;DHT22;44257;44.804;10.220;2022-11-20T09:13:48;8.30;99.90
58469;DHT22;44257;44.804;10.220;2022-11-20T09:16:14;8.50;99.90
58469;DHT22;44257;44.804;10.220;2022-11-20T09:18:40;8.60;99.90
58469;DHT22;44257;44.804;10.220;2022-11-20T09:21:09;8.70;99.90
58469;DHT22;44257;44.804;10.220;2022-11-20T09:23:38;8.80;99.90
58469;DHT22;44257;44.804;10.220;2022-11-20T09:26:06;9.00;99.90
58469;DHT22;44257;44.804;10.220;2022-11-20T09:28:33;9.00;99.90
58469;DHT22;44257;44.804;10.220;2022-11-20T09:30:59;9.20;99.90
58469;DHT22;44257;44.804;10.220;2022-11-20T09:33:25;9.30;99.90
58469;DHT22;44257;44.804;10.220;2022-11-20T09:35:50;9.40;99.90
58469;DHT22;44257;44.804;10.220;2022-11-20T09:38:16;9.60;99.90
58469;DHT22;44257;44.804;10.220;2022-11-20T09:40:54;9.70;99.90
58469;DHT22;44257;44.804;10.220;2022-11-20T09:46:26;10.00;99.90
58469;DHT22;44257;44.804;10.220;2022-11-20T09:49:06;10.20;99.90
58469;DHT22;44257;44.804;10.220;2022-11-20T09:51:56;10.30;99.90
58469;DHT22;44257;44.804;10.220;2022-11-20T09:54:29;10.10;99.90
58469;DHT22;44257;44.804;10.220;2022-11-20T09:57:04;10.10;99.90
58469;DHT22;44257;44.804;10.220;2022-11-20T09:59:38;10.00;99.90
58469;DHT22;44257;44.804;10.220;2022-11-20T10:05:02;9.90;99.90
58469;DHT22;44257;44.804;10.220;2022-11-20T10:07:37;9.90;99.90
58469;DHT22;44257;44.804;10.220;2022-11-20T10:10:04;9.80;99.90
58469;DHT22;44257;44.804;10.220;2022-11-20T10:17:58;9.60;99.90
58469;DHT22;44257;44.804;10.220;2022-11-20T10:26:22;9.90;99.90
58469;DHT22;44257;44.804;10.220;2022-11-20T10:31:43;10.00;99.90
58469;DHT22;44257;44.804;10.220;2022-11-20T10:34:23;10.00;99.90
58469;DHT22;44257;44.804;10.220;2022-11-20T10:36:58;9.90;99.90
58469;DHT22;44257;44.804;10.220;2022-11-20T10:42:43;9.90;99.90
58469;DHT22;44257;44.804;10.220;2022-11-20T10:48:16;10.10;99.90
58469;DHT22;44257;44.804;10.220;2022-11-20T10:50:59;10.10;99.90
58469;DHT22;44257;44.804;10.220;2022-11-20T10:56:16;9.80;99.90
58469;DHT22;44257;44.804;10.220;2022-11-20T11:01:17;9.60;99.90
58469;DHT22;44257;44.804;10.220;2022-11-20T11:03:43;9.70;99.90
58469;DHT22;44257;44.804;10.220;2022-11-20T11:06:15;9.70;99.90
58469;DHT22;44257;44.804;10.220;2022-11-20T11:08:46;9.80;99.90
58469;DHT22;44257;44.804;10.220;2022-11-20T11:13:47;9.90;99.90
58469;DHT22;44257;44.804;10.220;2022-11-20T11:16:25;9.90;99.90
58469;DHT22;44257;44.804;10.220;2022-11-20T11:19:02;9.90;99.90
58469;DHT22;44257;44.804;10.220;2022-11-20T11:21:29;9.90;99.90
58469;DHT22;44257;44.804;10.220;2022-11-20T11:24:00;9.90;99.90
58469;DHT22;44257;44.804;10.220;2022-11-20T11:26:27;9.90;99.90
58469;DHT22;44257;44.804;10.220;2022-11-20T11:28:58;9.90;99.90
58469;DHT22;44257;44.804;10.220;2022-11-20T11:31:25;9.80;99.90
58469;DHT22;44257;44.804;10.220;2022-11-20T11:33:51;9.80;99.90
58469;DHT22;44257;44.804;10.220;2022-11-20T11:36:21;9.80;99.90
58469;DHT22;44257;44.804;10.220;2022-11-20T11:38:51;9.90;99.90
58469;DHT22;44257;44.804;10.220;2022-11-20T11:41:24;10.00;99.90
58469;DHT22;44257;44.804;10.220;2022-11-20T11:43:56;9.90;99.90
58469;DHT22;44257;44.804;10.220;2022-11-20T11:46:49;9.90;99.90
58469;DHT22;44257;44.804;10.220;2022-11-20T11:49:19;9.90;99.90
58469;DHT22;44257;44.804;10.220;2022-11-20T11:54:53;9.80;99.90
58469;DHT22;44257;44.804;10.220;2022-11-20T12:00:13;9.80;99.90
58469;DHT22;44257;44.804;10.220;2022-11-20T12:05:44;10.10;99.90
58469;DHT22;44257;44.804;10.220;2022-11-20T12:13:53;10.40;99.90
58469;DHT22;44257;44.804;10.220;2022-11-20T12:16:20;10.50;99.90
58469;DHT22;44257;44.804;10.220;2022-11-20T12:18:51;10.70;99.90
58469;DHT22;44257;44.804;10.220;2022-11-20T12:30:03;11.20;99.90
58469;DHT22;44257;44.804;10.220;2022-11-20T12:38:33;11.00;99.90
58469;DHT22;44257;44.804;10.220;2022-11-20T12:43:49;11.20;99.90
58469;DHT22;44257;44.804;10.220;2022-11-20T12:49:51;11.20;99.90
58469;DHT22;44257;44.804;10.220;2022-11-20T12:55:13;11.30;99.90
58469;DHT22;44257;44.804;10.220;2022-11-20T13:04:18;11.50;99.90
58469;DHT22;44257;44.804;10.220;2022-11-20T13:06:54;11.60;99.90
58469;DHT22;44257;44.804;10.220;2022-11-20T13:09:21;11.50;99.90
58469;DHT22;44257;44.804;10.220;2022-11-20T13:12:13;11.60;99.90
58469;DHT22;44257;44.804;10.220;2022-11-20T13:14:55;11.70;99.90
58469;DHT22;44257;44.804;10.220;2022-11-20T13:17:59;11.80;99.90
58469;DHT22;44257;44.804;10.220;2022-11-20T13:20:26;11.90;99.90
58469;DHT22;44257;44.804;10.220;2022-11-20T13:22:55;11.80;99.90
58469;DHT22;44257;44.804;10.220;2022-11-20T13:27:52;12.00;99.90
58469;DHT22;44257;44.804;10.220;2022-11-20T13:30:20;12.00;99.90
58469;DHT22;44257;44.804;10.220;2022-11-20T13:33:02;12.00;99.90
58469;DHT22;44257;44.804;10.220;2022-11-20T13:35:35;12.10;99.90
58469;DHT22;44257;44.804;10.220;2022-11-20T13:38:05;12.20;99.90
58469;DHT22;44257;44.804;10.220;2022-11-20T13:40:31;12.20;99.90
58469;DHT22;44257;44.804;10.220;2022-11-20T13:43:21;12.30;99.90
58469;DHT22;44257;44.804;10.220;2022-11-20T13:46:00;12.40;99.90
58469;DHT22;44257;44.804;10.220;2022-11-20T13:48:42;12.40;99.90
58469;DHT22;44257;44.804;10.220;2022-11-20T13:51:36;12.50;99.90
58469;DHT22;44257;44.804;10.220;2022-11-20T13:57:21;12.50;99.90
58469;DHT22;44257;44.804;10.220;2022-11-20T14:00:17;12.50;99.90
58469;DHT22;44257;44.804;10.220;2022-11-20T14:03:01;12.50;99.90
58469;DHT22;44257;44.804;10.220;2022-11-20T14:05:28;12.30;99.90
58469;DHT22;44257;44.804;10.220;2022-11-20T14:07:57;12.30;99.90
58469;DHT22;44257;44.804;10.220;2022-11-20T14:10:26;12.40;99.90
58469;DHT22;44257;44.804;10.220;2022-11-20T14:12:53;12.40;99.90
58469;DHT22;44257;44.804;10.220;2022-11-20T14:15:31;12.40;99.90
58469;DHT22;44257;44.804;10.220;2022-11-20T14:17:59;12.30;99.90
58469;DHT22;44257;44.804;10.220;2022-11-20T14:20:28;12.40;99.90
58469;DHT22;44257;44.804;10.220;2022-11-20T14:22:55;12.30;99.90
58469;DHT22;44257;44.804;10.220;2022-11-20T14:25:23;12.30;99.90
58469;DHT22;44257;44.804;10.220;2022-11-20T14:27:57;12.20;99.90
58469;DHT22;44257;44.804;10.220;2022-11-20T14:30:44;12.20;99.90
58469;DHT22;44257;44.804;10.220;2022-11-20T14:33:13;12.20;99.90
58469;DHT22;44257;44.804;10.220;2022-11-20T14:35:48;12.20;99.90
58469;DHT22;44257;44.804;10.220;2022-11-20T14:38:16;12.10;99.90
58469;DHT22;44257;44.804;10.220;2022-11-20T14:40:42;12.10;99.90
58469;DHT22;44257;44.804;10.220;2022-11-20T14:43:25;12.00;99.90
58469;DHT22;44257;44.804;10.220;2022-11-20T14:46:03;11.90;99.90
58469;DHT22;44257;44.804;10.220;2022-11-20T14:48:44;11.90;99.90
58469;DHT22;44257;44.804;10.220;2022-11-20T14:51:12;11.80;99.90
58469;DHT22;44257;44.804;10.220;2022-11-20T14:53:49;11.70;99.90
58469;DHT22;44257;44.804;10.220;2022-11-20T14:56:22;11.60;99.90
58469;DHT22;44257;44.804;10.220;2022-11-20T14:58:56;11.50;99.90
58469;DHT22;44257;44.804;10.220;2022-11-20T15:01:29;11.40;99.90
58469;DHT22;44257;44.804;10.220;2022-11-20T15:04:14;11.30;99.90
58469;DHT22;44257;44.804;10.220;2022-11-20T15:06:50;11.20;99.90
58469;DHT22;44257;44.804;10.220;2022-11-20T15:09:17;11.10;99.90
58469;DHT22;44257;44.804;10.220;2022-11-20T15:11:55;10.90;99.90
58469;DHT22;44257;44.804;10.220;2022-11-20T15:14:23;10.80;99.90
58469;DHT22;44257;44.804;10.220;2022-11-20T15:16:50;10.70;99.90
58469;DHT22;44257;44.804;10.220;2022-11-20T15:19:24;10.60;99.90
58469;DHT22;44257;44.804;10.220;2022-11-20T15:21:51;10.50;99.90
58469;DHT22;44257;44.804;10.220;2022-11-20T15:24:17;10.40;99.90
58469;DHT22;44257;44.804;10.220;2022-11-20T15:26:43;10.30;99.90
58469;DHT22;44257;44.804;10.220;2022-11-20T15:29:14;10.10;99.90
58469;DHT22;44257;44.804;10.220;2022-11-20T15:31:44;10.00;99.90
58469;DHT22;44257;44.804;10.220;2022-11-20T15:34:11;9.90;99.90
58469;DHT22;44257;44.804;10.220;2022-11-20T15:36:42;9.80;99.90
58469;DHT22;44257;44.804;10.220;2022-11-20T15:39:08;9.70;99.90
58469;DHT22;44257;44.804;10.220;2022-11-20T15:41:38;9.50;99.90
58469;DHT22;44257;44.804;10.220;2022-11-20T15:44:04;9.40;99.90
58469;DHT22;44257;44.804;10.220;2022-11-20T15:46:32;9.30;99.90
58469;DHT22;44257;44.804;10.220;2022-11-20T15:49:03;9.20;99.90
58469;DHT22;44257;44.804;10.220;2022-11-20T15:53:55;9.10;99.90
58469;DHT22;44257;44.804;10.220;2022-11-20T15:56:22;9.00;99.90
58469;DHT22;44257;44.804;10.220;2022-11-20T15:58:48;8.90;99.90
58469;DHT22;44257;44.804;10.220;2022-11-20T16:01:17;8.80;99.90
58469;DHT22;44257;44.804;10.220;2022-11-20T16:03:43;8.70;99.90
58469;DHT22;44257;44.804;10.220;2022-11-20T16:06:09;8.60;99.90
58469;DHT22;44257;44.804;10.220;2022-11-20T16:08:35;8.50;99.90
58469;DHT22;44257;44.804;10.220;2022-11-20T16:11:01;8.40;99.90
58469;DHT22;44257;44.804;10.220;2022-11-20T16:13:27;8.30;99.90
58469;DHT22;44257;44.804;10.220;2022-11-20T16:16:21;8.20;99.90
58469;DHT22;44257;44.804;10.220;2022-11-20T16:18:47;8.20;99.90
58469;DHT22;44257;44.804;10.220;2022-11-20T16:21:14;8.10;99.90
58469;DHT22;44257;44.804;10.220;2022-11-20T16:23:40;8.00;99.90
58469;DHT22;44257;44.804;10.220;2022-11-20T16:26:15;7.90;99.90
58469;DHT22;44257;44.804;10.220;2022-11-20T16:28:42;7.80;99.90
58469;DHT22;44257;44.804;10.220;2022-11-20T16:31:16;7.70;99.90
58469;DHT22;44257;44.804;10.220;2022-11-20T16:33:43;7.70;99.90
58469;DHT22;44257;44.804;10.220;2022-11-20T16:36:15;7.70;99.90
58469;DHT22;44257;44.804;10.220;2022-11-20T16:38:41;7.70;99.90
58469;DHT22;44257;44.804;10.220;2022-11-20T16:41:07;7.70;99.90
58469;DHT22;44257;44.804;10.220;2022-11-20T16:43:47;7.60;99.90
58469;DHT22;44257;44.804;10.220;2022-11-20T16:46:15;7.40;99.90
58469;DHT22;44257;44.804;10.220;2022-11-20T16:48:41;7.30;99.90
58469;DHT22;44257;44.804;10.220;2022-11-20T16:51:11;7.20;99.90
58469;DHT22;44257;44.804;10.220;2022-11-20T16:53:38;7.10;99.90
58469;DHT22;44257;44.804;10.220;2022-11-20T16:56:14;7.00;99.90
58469;DHT22;44257;44.804;10.220;2022-11-20T16:58:42;7.00;99.90
58469;DHT22;44257;44.804;10.220;2022-11-20T17:01:10;6.90;99.90
58469;DHT22;44257;44.804;10.220;2022-11-20T17:03:40;6.90;99.90
58469;DHT22;44257;44.804;10.220;2022-11-20T17:06:16;6.80;99.90
58469;DHT22;44257;44.804;10.220;2022-11-20T17:08:42;6.80;99.90
58469;DHT22;44257;44.804;10.220;2022-11-20T17:11:10;6.70;99.90